Time;durP1;ratioP1;P1;durP2;ratioP2;P2;SDS_P1;SDS_P2;PMS_P1;PMS_P2;Temp;Humidity;BMP_temperature;BMP_pressure;BME280_temperature;BME280_humidity;BME280_pressure;Samples;Min_cycle;Max_cycle;Signal;HPM_P1;HPM_P2
2021/06/20 00:00:28;;;;;;;8.02;5.00;;;27.90;79.20;;;;;;5053173;28;20499;-50
2021/06/20 00:02:55;;;;;;;16.80;5.55;;;27.90;79.20;;;;;;5052932;28;20036;-49
2021/06/20 00:05:31;;;;;;;16.42;5.90;;;27.80;79.20;;;;;;5052912;28;20032;-48
2021/06/20 00:08:04;;;;;;;17.42;6.13;;;27.80;79.50;;;;;;5052864;28;20481;-50
2021/06/20 00:10:33;;;;;;;12.50;5.68;;;27.80;79.60;;;;;;5052243;28;20032;-51
2021/06/20 00:12:59;;;;;;;17.17;7.55;;;27.80;79.90;;;;;;5052541;28;20082;-50
2021/06/20 00:15:26;;;;;;;19.65;7.88;;;27.80;79.90;;;;;;5052635;28;20025;-48
2021/06/20 00:17:53;;;;;;;10.00;5.20;;;27.80;80.20;;;;;;5052679;28;20025;-47
2021/06/20 00:20:23;;;;;;;13.18;6.18;;;27.80;81.10;;;;;;5052511;28;20025;-47
2021/06/20 00:22:50;;;;;;;13.73;6.28;;;27.80;80.50;;;;;;5052531;28;20033;-47
2021/06/20 00:25:16;;;;;;;9.55;5.75;;;27.80;80.80;;;;;;5052399;28;20545;-47
2021/06/20 00:27:42;;;;;;;19.48;6.22;;;27.70;81.10;;;;;;5052544;28;20040;-49
2021/06/20 00:30:12;;;;;;;10.27;5.50;;;27.60;81.50;;;;;;5051846;28;20403;-51
2021/06/20 00:32:37;;;;;;;17.23;6.53;;;27.50;82.20;;;;;;5052352;28;20036;-47
2021/06/20 00:35:05;;;;;;;11.07;5.28;;;27.50;82.70;;;;;;5052559;28;20080;-47
2021/06/20 00:37:30;;;;;;;12.93;6.10;;;27.50;82.90;;;;;;5052133;28;20090;-50
2021/06/20 00:39:56;;;;;;;11.52;6.53;;;27.40;83.10;;;;;;5052051;28;20029;-52
2021/06/20 00:42:22;;;;;;;14.70;6.07;;;27.30;83.60;;;;;;5052893;28;20116;-52
2021/06/20 00:44:50;;;;;;;14.70;6.03;;;27.30;83.90;;;;;;5052400;28;20031;-48
2021/06/20 00:47:17;;;;;;;18.58;7.10;;;27.20;84.30;;;;;;5051443;28;20435;-51
2021/06/20 00:49:42;;;;;;;10.40;6.00;;;27.20;84.50;;;;;;5051553;28;20576;-48
2021/06/20 00:52:08;;;;;;;15.10;6.32;;;27.10;84.90;;;;;;5052038;28;20117;-50
2021/06/20 00:54:34;;;;;;;11.85;6.15;;;27.00;85.20;;;;;;5051912;28;20403;-50
2021/06/20 00:57:00;;;;;;;13.77;5.63;;;27.10;85.40;;;;;;5051859;28;20479;-51
2021/06/20 00:59:27;;;;;;;8.77;6.05;;;27.10;85.60;;;;;;5051561;28;20032;-52
2021/06/20 01:01:52;;;;;;;14.40;7.35;;;27.10;86.00;;;;;;5051828;28;20094;-51
2021/06/20 01:04:18;;;;;;;16.73;6.30;;;27.00;86.50;;;;;;5051868;28;20669;-48
2021/06/20 01:06:43;;;;;;;22.85;7.35;;;26.90;87.80;;;;;;5051739;28;20463;-51
2021/06/20 01:09:09;;;;;;;21.13;7.55;;;26.90;87.90;;;;;;5051512;28;20029;-51
2021/06/20 01:11:34;;;;;;;17.50;7.05;;;26.70;88.50;;;;;;5051036;28;20029;-52
2021/06/20 01:14:00;;;;;;;21.67;6.70;;;26.80;89.30;;;;;;5051423;28;20427;-50
2021/06/20 01:16:27;;;;;;;15.50;6.72;;;26.70;89.80;;;;;;5051692;28;20029;-51
2021/06/20 01:18:53;;;;;;;21.92;8.45;;;26.60;90.00;;;;;;5051590;28;20029;-48
2021/06/20 01:21:19;;;;;;;15.57;7.28;;;26.70;90.10;;;;;;5051386;28;20013;-50
2021/06/20 01:23:45;;;;;;;19.55;7.10;;;26.60;90.10;;;;;;5051442;28;20032;-50
2021/06/20 01:26:10;;;;;;;14.02;6.93;;;26.70;90.30;;;;;;5051281;28;20275;-48
2021/06/20 01:29:01;;;;;;;18.20;6.43;;;26.70;90.20;;;;;;5051374;28;20047;-49
2021/06/20 01:31:27;;;;;;;18.45;8.82;;;26.70;90.20;;;;;;5067831;22;20048;-48
2021/06/20 01:33:53;;;;;;;29.00;7.65;;;26.80;90.20;;;;;;5051267;28;20484;-47
2021/06/20 01:36:18;;;;;;;22.60;8.40;;;26.80;90.10;;;;;;5051106;28;20032;-49
2021/06/20 01:38:44;;;;;;;23.27;7.32;;;26.80;90.10;;;;;;5051015;28;20027;-47
2021/06/20 01:41:10;;;;;;;21.35;7.20;;;26.90;90.10;;;;;;5050154;28;20048;-51
2021/06/20 01:43:36;;;;;;;22.17;7.75;;;26.90;90.00;;;;;;5050907;28;20070;-48
2021/06/20 01:46:01;;;;;;;25.75;7.40;;;26.90;90.00;;;;;;5032928;28;20021;-50
2021/06/20 01:48:27;;;;;;;24.73;7.13;;;26.90;89.90;;;;;;5051088;28;20025;-49
2021/06/20 01:50:52;;;;;;;28.30;6.95;;;26.90;89.70;;;;;;5050007;28;20032;-50
2021/06/20 01:53:18;;;;;;;29.05;8.68;;;26.90;89.70;;;;;;5032624;28;20029;-50
2021/06/20 01:55:46;;;;;;;16.08;7.00;;;26.90;89.60;;;;;;5050708;28;20021;-49
2021/06/20 01:58:14;;;;;;;26.48;7.57;;;26.90;89.80;;;;;;5050703;28;20213;-52
2021/06/20 02:00:43;;;;;;;24.80;7.18;;;26.90;89.60;;;;;;5049509;28;20021;-51
2021/06/20 02:03:11;;;;;;;20.92;5.60;;;26.90;89.40;;;;;;5050556;28;20039;-48
2021/06/20 02:05:41;;;;;;;17.50;5.75;;;26.90;88.90;;;;;;5050621;28;20021;-51
2021/06/20 02:08:07;;;;;;;24.60;5.97;;;26.80;87.40;;;;;;5050575;28;20074;-48
2021/06/20 02:10:33;;;;;;;19.58;4.70;;;26.80;85.40;;;;;;5048651;28;20021;-47
2021/06/20 02:12:59;;;;;;;21.25;5.53;;;26.80;84.20;;;;;;5050358;28;20036;-48
2021/06/20 02:15:24;;;;;;;14.70;3.88;;;26.80;83.40;;;;;;5050387;28;20487;-54
2021/06/20 02:17:50;;;;;;;11.75;3.72;;;26.80;83.40;;;;;;5050403;28;20392;-51
2021/06/20 02:20:18;;;;;;;18.63;4.13;;;26.70;83.30;;;;;;5049442;28;20022;-50
2021/06/20 02:22:46;;;;;;;20.02;4.18;;;26.70;83.50;;;;;;5050098;28;20107;-50
2021/06/20 02:25:14;;;;;;;14.88;4.32;;;26.60;83.50;;;;;;5050296;28;20558;-52
2021/06/20 02:27:41;;;;;;;19.17;4.30;;;26.60;83.80;;;;;;5050216;28;20502;-51
2021/06/20 02:30:08;;;;;;;18.00;3.85;;;26.60;84.30;;;;;;5031697;28;20059;-53
2021/06/20 02:32:35;;;;;;;11.73;4.30;;;26.50;84.60;;;;;;5049672;28;20039;-49
2021/06/20 02:35:00;;;;;;;24.80;5.78;;;26.60;85.00;;;;;;5050149;28;20108;-52
2021/06/20 02:37:26;;;;;;;14.18;4.40;;;26.50;85.20;;;;;;5050374;28;20125;-49
2021/06/20 02:39:52;;;;;;;21.90;4.40;;;26.50;85.50;;;;;;5049430;28;20017;-51
2021/06/20 02:42:18;;;;;;;13.95;4.80;;;26.50;85.70;;;;;;5050144;28;20032;-54
2021/06/20 02:44:44;;;;;;;18.50;4.78;;;26.50;86.10;;;;;;5050232;28;20055;-49
2021/06/20 02:47:10;;;;;;;12.35;4.28;;;26.50;86.40;;;;;;5050284;28;20021;-51
2021/06/20 02:49:37;;;;;;;24.05;5.40;;;26.40;86.30;;;;;;5031373;28;20110;-49
2021/06/20 02:52:04;;;;;;;21.00;4.47;;;26.40;86.40;;;;;;5050498;28;20103;-47
2021/06/20 02:54:30;;;;;;;12.93;4.45;;;26.30;86.60;;;;;;5032143;28;20025;-50
2021/06/20 02:56:57;;;;;;;17.38;4.63;;;26.30;86.70;;;;;;5050165;28;20017;-48
2021/06/20 02:59:22;;;;;;;11.48;4.93;;;26.30;86.60;;;;;;5031350;28;20112;-49
2021/06/20 03:01:48;;;;;;;9.73;4.00;;;26.20;86.80;;;;;;5049910;28;20100;-52
2021/06/20 03:04:13;;;;;;;17.20;4.63;;;26.10;86.90;;;;;;5049895;28;20032;-52
2021/06/20 03:06:39;;;;;;;21.92;5.57;;;26.10;87.10;;;;;;5050094;28;20037;-52
2021/06/20 03:09:06;;;;;;;15.68;4.32;;;26.10;87.30;;;;;;5049175;28;20021;-52
2021/06/20 03:11:32;;;;;;;15.93;5.22;;;26.10;87.80;;;;;;5049614;28;20025;-50
2021/06/20 03:13:58;;;;;;;17.00;5.70;;;26.00;88.40;;;;;;5053772;28;20048;-50
2021/06/20 03:16:23;;;;;;;22.60;5.60;;;26.00;89.10;;;;;;5053682;28;20471;-50
2021/06/20 03:18:49;;;;;;;14.20;5.25;;;25.90;89.50;;;;;;5053488;28;20028;-52
2021/06/20 03:21:17;;;;;;;13.60;4.35;;;25.90;89.20;;;;;;5035168;28;20388;-51
2021/06/20 03:23:44;;;;;;;18.75;4.00;;;25.80;88.70;;;;;;5053616;28;20044;-51
2021/06/20 03:26:09;;;;;;;18.25;4.38;;;25.80;87.70;;;;;;5053843;28;20041;-51
2021/06/20 03:28:35;;;;;;;8.98;3.60;;;25.70;86.90;;;;;;5053907;28;20037;-49
2021/06/20 03:31:00;;;;;;;12.10;3.35;;;25.70;86.60;;;;;;5053018;28;20041;-48
2021/06/20 03:33:26;;;;;;;17.75;4.30;;;25.70;86.60;;;;;;5035510;28;20032;-48
2021/06/20 03:35:51;;;;;;;11.23;2.90;;;25.50;86.90;;;;;;5053842;28;20048;-51
2021/06/20 03:38:17;;;;;;;8.82;4.35;;;25.50;86.70;;;;;;5053532;28;20041;-53
2021/06/20 03:40:42;;;;;;;16.15;4.55;;;25.40;86.80;;;;;;5052490;28;20547;-51
2021/06/20 03:43:08;;;;;;;9.65;3.25;;;25.30;86.80;;;;;;5053211;28;20086;-51
2021/06/20 03:45:35;;;;;;;13.93;3.10;;;25.30;86.80;;;;;;5053115;28;20027;-53
2021/06/20 03:48:00;;;;;;;20.08;3.60;;;25.30;86.60;;;;;;5053079;28;20025;-47
2021/06/20 03:50:27;;;;;;;8.20;3.83;;;25.30;86.90;;;;;;5052383;28;20025;-50
2021/06/20 03:52:52;;;;;;;9.52;3.10;;;25.30;87.10;;;;;;5035189;28;20099;-47
2021/06/20 03:55:18;;;;;;;11.73;3.03;;;25.30;87.30;;;;;;5053021;28;20056;-49
2021/06/20 03:57:43;;;;;;;11.45;3.38;;;25.20;87.30;;;;;;5035316;28;20064;-53
2021/06/20 04:00:11;;;;;;;7.95;2.88;;;25.20;87.40;;;;;;5052514;28;20024;-53
2021/06/20 04:02:37;;;;;;;10.80;2.85;;;25.20;87.40;;;;;;5034459;28;20094;-51
2021/06/20 04:05:04;;;;;;;10.75;3.42;;;25.20;87.40;;;;;;5053172;28;20041;-48
2021/06/20 04:07:30;;;;;;;11.25;3.03;;;25.10;87.80;;;;;;5052719;28;20029;-50
2021/06/20 04:09:55;;;;;;;10.80;3.65;;;25.20;88.00;;;;;;5050410;28;20033;-50
2021/06/20 04:12:21;;;;;;;6.72;3.10;;;25.20;88.20;;;;;;5052395;28;20113;-49
2021/06/20 04:14:46;;;;;;;9.95;3.50;;;25.00;88.30;;;;;;5052682;28;20063;-50
2021/06/20 04:17:12;;;;;;;8.18;3.35;;;25.00;88.40;;;;;;5052784;28;20104;-50
2021/06/20 04:19:37;;;;;;;10.73;2.88;;;25.00;88.80;;;;;;5052202;28;20025;-48
2021/06/20 04:22:03;;;;;;;8.27;2.60;;;24.90;89.00;;;;;;5052272;28;20029;-49
2021/06/20 04:24:29;;;;;;;8.75;3.17;;;24.80;89.30;;;;;;5034729;28;20025;-49
2021/06/20 04:26:55;;;;;;;14.50;4.20;;;24.80;89.40;;;;;;5052477;28;20025;-51
2021/06/20 04:29:21;;;;;;;8.88;3.15;;;24.80;89.80;;;;;;5052435;28;20029;-51
2021/06/20 04:31:47;;;;;;;6.25;3.28;;;24.70;90.00;;;;;;5053713;28;20074;-48
2021/06/20 04:34:12;;;;;;;9.82;2.97;;;24.70;90.20;;;;;;5053932;28;20486;-51
2021/06/20 04:36:38;;;;;;;16.85;3.45;;;24.70;90.30;;;;;;5054343;28;20024;-53
2021/06/20 04:39:07;;;;;;;11.75;3.25;;;24.70;90.40;;;;;;5053200;28;20036;-48
2021/06/20 04:41:34;;;;;;;8.85;3.05;;;24.70;90.60;;;;;;5051745;28;20075;-51
2021/06/20 04:44:02;;;;;;;9.35;2.50;;;24.70;90.50;;;;;;5051902;28;20025;-49
2021/06/20 04:46:34;;;;;;;6.93;2.88;;;24.80;90.70;;;;;;5051653;28;20384;-47
2021/06/20 04:49:07;;;;;;;8.15;3.60;;;24.80;90.80;;;;;;5033354;28;20029;-42
2021/06/20 04:51:38;;;;;;;6.43;2.58;;;24.80;90.90;;;;;;5052113;28;20477;-47
2021/06/20 04:54:04;;;;;;;6.82;3.30;;;24.70;91.00;;;;;;5051768;28;20025;-48
2021/06/20 04:56:30;;;;;;;8.02;3.25;;;24.60;91.30;;;;;;5050905;28;20361;-49
2021/06/20 04:58:56;;;;;;;8.77;3.47;;;24.60;91.10;;;;;;5051094;28;20025;-49
2021/06/20 05:01:22;;;;;;;9.60;4.30;;;24.60;91.00;;;;;;5051358;28;20021;-47
2021/06/20 05:03:48;;;;;;;5.82;3.40;;;24.60;91.10;;;;;;5051645;28;20025;-48
2021/06/20 05:06:14;;;;;;;7.68;3.20;;;24.60;91.20;;;;;;5051945;28;20574;-46
2021/06/20 05:08:39;;;;;;;5.65;2.88;;;24.60;91.20;;;;;;5051935;28;20061;-46
2021/06/20 05:11:05;;;;;;;6.05;2.95;;;24.60;91.10;;;;;;5051130;28;20037;-54
2021/06/20 05:13:31;;;;;;;5.90;3.17;;;24.60;91.20;;;;;;5051741;28;20086;-49
2021/06/20 05:15:56;;;;;;;6.57;2.97;;;24.60;91.30;;;;;;5051940;28;20020;-48
2021/06/20 05:18:22;;;;;;;7.00;3.03;;;24.60;91.30;;;;;;5041274;28;20048;-46
2021/06/20 05:20:47;;;;;;;5.15;3.05;;;24.60;91.40;;;;;;5048504;28;20067;-45
2021/06/20 05:23:13;;;;;;;12.07;3.90;;;24.60;91.40;;;;;;5050291;28;20083;-47
2021/06/20 05:25:39;;;;;;;8.18;2.80;;;24.60;91.40;;;;;;5049891;28;20033;-49
2021/06/20 05:28:05;;;;;;;7.68;3.17;;;24.70;91.30;;;;;;5050151;28;20056;-51
2021/06/20 05:30:30;;;;;;;8.48;3.40;;;24.70;91.10;;;;;;5049512;28;20503;-47
2021/06/20 05:32:56;;;;;;;13.10;3.63;;;24.80;91.20;;;;;;5032138;28;20033;-50
2021/06/20 05:35:21;;;;;;;7.88;3.05;;;24.70;90.90;;;;;;5049439;28;20021;-47
2021/06/20 05:37:47;;;;;;;9.25;3.17;;;24.70;91.10;;;;;;5049600;28;20027;-48
2021/06/20 05:40:14;;;;;;;4.50;3.10;;;24.50;91.40;;;;;;5030931;28;20032;-49
2021/06/20 05:42:40;;;;;;;7.20;2.88;;;24.50;91.50;;;;;;5031655;28;20078;-47
2021/06/20 05:45:06;;;;;;;3.72;3.05;;;24.50;91.90;;;;;;5032513;28;20017;-50
2021/06/20 05:47:32;;;;;;;12.00;3.47;;;24.50;91.80;;;;;;5049100;28;20075;-50
2021/06/20 05:49:57;;;;;;;5.55;3.72;;;24.40;91.60;;;;;;5048902;28;20093;-50
2021/06/20 05:52:23;;;;;;;6.72;3.65;;;24.40;91.70;;;;;;5050905;28;20082;-46
2021/06/20 05:54:51;;;;;;;9.45;3.10;;;24.50;91.70;;;;;;5050457;28;20029;-47
2021/06/20 05:57:20;;;;;;;5.32;3.13;;;24.50;91.70;;;;;;5051108;28;20495;-48
2021/06/20 05:59:47;;;;;;;5.72;3.28;;;24.40;91.70;;;;;;5049808;28;20044;-51
2021/06/20 06:02:13;;;;;;;5.05;3.42;;;24.40;91.90;;;;;;5050424;28;20108;-51
2021/06/20 06:04:41;;;;;;;10.80;3.60;;;24.30;92.20;;;;;;5050066;28;20151;-46
2021/06/20 06:07:06;;;;;;;8.02;3.35;;;24.20;92.50;;;;;;5050546;28;20027;-55
2021/06/20 06:09:32;;;;;;;7.75;3.50;;;24.20;92.30;;;;;;5049443;28;20100;-47
2021/06/20 06:11:57;;;;;;;7.63;3.47;;;24.30;92.20;;;;;;5050521;28;20025;-47
2021/06/20 06:14:23;;;;;;;4.15;3.03;;;24.30;92.50;;;;;;5050113;28;20029;-49
2021/06/20 06:16:50;;;;;;;8.45;3.42;;;24.40;92.20;;;;;;5050160;28;20380;-47
2021/06/20 06:19:17;;;;;;;7.00;3.15;;;24.50;92.20;;;;;;5049428;28;20044;-47
2021/06/20 06:21:43;;;;;;;7.05;3.03;;;24.60;92.10;;;;;;5050346;28;20323;-49
2021/06/20 06:24:10;;;;;;;7.88;3.03;;;24.60;92.10;;;;;;5050403;28;20116;-48
2021/06/20 06:26:36;;;;;;;8.13;3.15;;;24.70;91.80;;;;;;5051423;28;20021;-46
2021/06/20 06:29:01;;;;;;;9.82;3.47;;;24.80;91.00;;;;;;5048953;28;20049;-47
2021/06/20 06:31:27;;;;;;;5.32;2.60;;;24.90;91.60;;;;;;5050050;28;20067;-50
2021/06/20 06:33:52;;;;;;;8.30;3.35;;;25.00;91.10;;;;;;5049912;28;20033;-53
2021/06/20 06:36:19;;;;;;;5.45;3.30;;;25.10;91.50;;;;;;5050022;28;20496;-49
2021/06/20 06:38:45;;;;;;;9.43;3.47;;;25.10;91.50;;;;;;5049594;28;20037;-48
2021/06/20 06:41:10;;;;;;;7.40;3.30;;;25.10;91.30;;;;;;5049857;28;20095;-47
2021/06/20 06:43:36;;;;;;;7.00;3.03;;;25.20;91.50;;;;;;5049762;28;20510;-51
2021/06/20 06:46:01;;;;;;;5.90;2.95;;;25.30;91.20;;;;;;5050565;28;20029;-49
2021/06/20 06:48:27;;;;;;;5.43;3.28;;;25.30;91.10;;;;;;5054498;28;20017;-50
2021/06/20 06:50:52;;;;;;;3.85;2.40;;;25.30;91.50;;;;;;5053031;28;20028;-46
2021/06/20 06:53:18;;;;;;;6.43;2.70;;;25.50;91.70;;;;;;5053651;28;20040;-47
2021/06/20 06:55:44;;;;;;;7.65;2.78;;;25.60;91.60;;;;;;5054014;28;20041;-53
2021/06/20 06:58:09;;;;;;;8.60;3.33;;;25.70;91.20;;;;;;5053851;28;20108;-52
2021/06/20 07:00:35;;;;;;;9.63;2.65;;;25.70;90.90;;;;;;5033083;28;20022;-49
2021/06/20 07:03:01;;;;;;;8.65;2.88;;;25.60;91.10;;;;;;5034017;28;20116;-46
2021/06/20 07:05:27;;;;;;;4.45;2.60;;;25.50;90.30;;;;;;5053751;28;20028;-46
2021/06/20 07:07:54;;;;;;;8.23;2.97;;;25.50;90.70;;;;;;5036295;28;20032;-48
2021/06/20 07:10:19;;;;;;;8.73;2.63;;;25.60;90.50;;;;;;5052670;28;20028;-50
2021/06/20 07:12:45;;;;;;;10.15;3.35;;;25.80;90.30;;;;;;5036068;28;20094;-51
2021/06/20 07:15:12;;;;;;;5.72;2.97;;;25.80;90.30;;;;;;5053482;28;20434;-49
2021/06/20 07:17:38;;;;;;;3.85;2.65;;;26.00;90.10;;;;;;5053728;28;20646;-48
2021/06/20 07:20:07;;;;;;;5.60;2.63;;;25.90;89.10;;;;;;5052753;28;20049;-49
2021/06/20 07:22:33;;;;;;;9.27;3.00;;;25.70;90.00;;;;;;5053760;28;20028;-51
2021/06/20 07:24:59;;;;;;;12.15;3.35;;;25.70;89.20;;;;;;5053042;28;20052;-51
2021/06/20 07:27:24;;;;;;;5.38;3.00;;;25.70;89.20;;;;;;5053785;28;20048;-47
2021/06/20 07:29:50;;;;;;;4.10;2.72;;;25.70;89.70;;;;;;5052378;28;20510;-51
2021/06/20 07:32:16;;;;;;;7.20;2.50;;;25.80;89.30;;;;;;5069671;22;20478;-50
2021/06/20 07:34:41;;;;;;;6.43;2.90;;;25.80;87.90;;;;;;5053112;28;20052;-50
2021/06/20 07:37:07;;;;;;;9.23;2.67;;;26.00;89.10;;;;;;5053894;28;20036;-51
2021/06/20 07:39:33;;;;;;;5.63;2.50;;;26.00;87.50;;;;;;5052561;28;20037;-50
2021/06/20 07:42:00;;;;;;;3.90;2.28;;;26.10;88.10;;;;;;5035525;28;20029;-47
2021/06/20 07:44:26;;;;;;;4.18;2.63;;;26.20;87.50;;;;;;5052912;28;20025;-50
2021/06/20 07:46:51;;;;;;;4.63;2.53;;;26.40;86.70;;;;;;5053494;28;20025;-50
2021/06/20 07:49:17;;;;;;;6.63;2.30;;;26.60;84.90;;;;;;5052273;28;20025;-50
2021/06/20 07:51:43;;;;;;;11.10;2.83;;;27.20;84.00;;;;;;5052968;28;20025;-51
2021/06/20 07:54:09;;;;;;;3.85;2.50;;;27.60;82.30;;;;;;5052826;28;20100;-51
2021/06/20 07:56:34;;;;;;;5.47;2.42;;;28.00;81.40;;;;;;5052462;28;20025;-50
2021/06/20 07:59:00;;;;;;;4.90;2.67;;;28.30;80.30;;;;;;5051934;28;20017;-52
2021/06/20 08:01:26;;;;;;;2.97;2.10;;;28.40;80.70;;;;;;5052836;28;20336;-48
2021/06/20 08:03:52;;;;;;;2.50;2.30;;;28.90;79.20;;;;;;5034690;28;20029;-48
2021/06/20 08:06:17;;;;;;;8.25;2.45;;;29.50;78.10;;;;;;5032751;28;20024;-47
2021/06/20 08:08:43;;;;;;;4.60;2.42;;;29.90;76.60;;;;;;5032760;28;20561;-47
2021/06/20 08:11:09;;;;;;;6.68;2.90;;;30.20;75.40;;;;;;5050383;28;20029;-50
2021/06/20 08:13:34;;;;;;;4.43;2.30;;;29.70;74.80;;;;;;5052503;28;20108;-49
2021/06/20 08:16:00;;;;;;;8.63;2.83;;;29.20;76.90;;;;;;5052165;28;20068;-48
2021/06/20 08:18:25;;;;;;;5.88;2.65;;;29.30;77.30;;;;;;5034288;28;20017;-48
2021/06/20 08:20:51;;;;;;;4.28;2.85;;;29.20;77.70;;;;;;5051483;28;20113;-47
2021/06/20 08:23:16;;;;;;;3.45;2.67;;;29.20;77.10;;;;;;5034406;28;20108;-53
2021/06/20 08:25:42;;;;;;;5.13;3.15;;;29.00;77.00;;;;;;5052626;28;20021;-51
2021/06/20 08:28:07;;;;;;;3.13;2.65;;;28.80;78.20;;;;;;5052278;28;20021;-48
2021/06/20 08:30:33;;;;;;;6.75;2.75;;;28.40;78.70;;;;;;5033808;28;20074;-50
2021/06/20 08:32:59;;;;;;;8.80;3.22;;;28.80;79.10;;;;;;5052465;28;20059;-51
2021/06/20 08:35:24;;;;;;;8.40;2.75;;;29.20;77.50;;;;;;5051834;28;20021;-52
2021/06/20 08:37:50;;;;;;;6.57;2.58;;;29.20;77.40;;;;;;5051966;28;20104;-47
2021/06/20 08:40:16;;;;;;;5.97;2.50;;;29.50;77.00;;;;;;5051490;28;20467;-50
2021/06/20 08:42:42;;;;;;;7.03;2.67;;;29.80;76.80;;;;;;5051879;28;20025;-49
2021/06/20 08:45:08;;;;;;;5.82;2.13;;;30.00;75.20;;;;;;5052256;28;20021;-47
2021/06/20 08:47:35;;;;;;;4.95;2.65;;;29.90;74.70;;;;;;5052172;28;20025;-48
2021/06/20 08:50:01;;;;;;;8.07;3.65;;;29.70;74.50;;;;;;5051392;28;20029;-52
2021/06/20 08:52:26;;;;;;;3.72;2.42;;;29.40;75.50;;;;;;5051862;28;20035;-49
2021/06/20 08:55:07;;;;;;;9.60;2.80;;;29.20;76.40;;;;;;5051756;28;20025;-51
2021/06/20 08:57:35;;;;;;;5.18;2.80;;;29.20;76.00;;;;;;5052182;28;20021;-52
2021/06/20 09:00:02;;;;;;;5.53;2.75;;;29.30;75.40;;;;;;5051292;28;20025;-49
2021/06/20 09:02:29;;;;;;;9.27;3.22;;;29.20;76.00;;;;;;5051564;28;20032;-47
2021/06/20 09:05:00;;;;;;;6.22;3.30;;;29.20;75.80;;;;;;5051880;28;20369;-50
2021/06/20 09:07:33;;;;;;;4.28;3.30;;;29.30;75.70;;;;;;5052152;28;20043;-51
2021/06/20 09:10:13;;;;;;;3.35;2.88;;;29.00;76.10;;;;;;5050016;28;20029;-51
2021/06/20 09:12:42;;;;;;;5.78;2.97;;;28.60;78.40;;;;;;5051703;28;20086;-48
2021/06/20 09:15:08;;;;;;;5.15;3.25;;;28.30;79.70;;;;;;5051394;28;20040;-49
2021/06/20 09:17:33;;;;;;;3.95;2.92;;;28.20;80.00;;;;;;5051515;28;20072;-51
2021/06/20 09:20:05;;;;;;;11.70;3.60;;;28.40;80.30;;;;;;5050535;28;20527;-47
2021/06/20 09:22:31;;;;;;;6.20;2.80;;;28.20;79.70;;;;;;5051141;28;20063;-48
2021/06/20 09:25:14;;;;;;;9.82;3.80;;;27.90;79.80;;;;;;5051275;28;20052;-49
2021/06/20 09:27:46;;;;;;;4.00;2.95;;;27.60;80.60;;;;;;5051346;28;20021;-47
2021/06/20 09:30:14;;;;;;;4.75;2.83;;;27.30;82.00;;;;;;5050402;28;20064;-49
2021/06/20 09:32:50;;;;;;;3.65;3.35;;;27.30;82.90;;;;;;5050586;28;20037;-49
2021/06/20 09:35:16;;;;;;;5.78;3.17;;;27.40;82.30;;;;;;5050453;28;20087;-50
2021/06/20 09:37:49;;;;;;;6.18;2.90;;;27.90;81.50;;;;;;5050807;28;20033;-49
2021/06/20 09:40:16;;;;;;;6.35;2.78;;;28.00;79.50;;;;;;5050220;28;20108;-47
2021/06/20 09:42:41;;;;;;;9.98;3.25;;;27.90;78.90;;;;;;5050534;28;20102;-49
2021/06/20 09:45:07;;;;;;;4.78;2.60;;;27.70;79.20;;;;;;5051091;28;20037;-47
2021/06/20 09:47:39;;;;;;;6.13;2.33;;;27.50;78.50;;;;;;5050641;28;20498;-47
2021/06/20 09:50:05;;;;;;;6.95;2.88;;;27.30;79.90;;;;;;5050151;28;20029;-50
2021/06/20 09:52:34;;;;;;;5.05;2.83;;;27.20;80.40;;;;;;5050020;28;20037;-51
2021/06/20 09:55:02;;;;;;;4.28;2.53;;;27.10;81.00;;;;;;5050401;28;20036;-51
2021/06/20 09:57:37;;;;;;;2.88;2.40;;;27.20;81.30;;;;;;5050363;28;20429;-50
2021/06/20 10:00:05;;;;;;;7.93;2.67;;;27.20;81.30;;;;;;5050362;28;20159;-50
2021/06/20 10:02:34;;;;;;;5.50;2.25;;;27.00;81.60;;;;;;5050537;28;20041;-46
2021/06/20 10:05:00;;;;;;;4.07;2.10;;;27.00;81.60;;;;;;5050654;28;20495;-48
2021/06/20 10:07:28;;;;;;;4.35;2.63;;;27.00;82.30;;;;;;5050822;28;20041;-50
2021/06/20 10:09:55;;;;;;;7.68;2.60;;;27.00;82.20;;;;;;5049647;28;20025;-47
2021/06/20 10:12:22;;;;;;;6.13;2.40;;;26.90;82.20;;;;;;5050540;28;20044;-48
2021/06/20 10:14:49;;;;;;;7.30;2.40;;;26.90;83.30;;;;;;5050313;28;20494;-50
2021/06/20 10:17:25;;;;;;;9.82;2.92;;;26.90;82.10;;;;;;5050565;28;20039;-49
2021/06/20 10:19:53;;;;;;;7.57;2.70;;;26.90;83.20;;;;;;5049600;28;20402;-49
2021/06/20 10:22:19;;;;;;;8.85;2.92;;;26.70;83.80;;;;;;5050119;28;20495;-53
2021/06/20 10:24:55;;;;;;;4.53;2.38;;;26.80;83.60;;;;;;5022435;28;20514;-53
2021/06/20 10:27:43;;;;;;;3.83;2.80;;;26.80;83.90;;;;;;5048209;28;20476;-50
2021/06/20 10:30:11;;;;;;;4.68;2.10;;;26.80;83.60;;;;;;5049113;28;20071;-53
2021/06/20 10:32:43;;;;;;;8.68;3.20;;;26.70;83.40;;;;;;5050264;28;20052;-53
2021/06/20 10:35:21;;;;;;;5.35;2.42;;;26.70;83.20;;;;;;5049932;28;20511;-61
2021/06/20 10:37:47;;;;;;;8.38;2.80;;;26.80;84.20;;;;;;5049631;28;20025;-53
2021/06/20 10:40:29;;;;;;;7.53;2.55;;;26.90;83.70;;;;;;5049032;28;20305;-55
2021/06/20 10:42:58;;;;;;;6.60;2.70;;;27.00;83.30;;;;;;5047932;28;20032;-55
2021/06/20 10:45:35;;;;;;;3.08;2.35;;;27.20;82.30;;;;;;5049924;28;20025;-51
2021/06/20 10:48:21;;;;;;;7.40;2.35;;;27.20;82.90;;;;;;5049657;28;20040;-54
2021/06/20 10:50:52;;;;;;;9.07;3.92;;;27.20;83.30;;;;;;5047124;28;20113;-51
2021/06/20 10:53:19;;;;;;;13.40;3.20;;;27.30;83.20;;;;;;5049566;28;20091;-48
2021/06/20 10:55:56;;;;;;;8.55;2.40;;;27.30;83.30;;;;;;5048023;28;20112;-51
2021/06/20 10:58:24;;;;;;;3.65;2.25;;;27.30;82.90;;;;;;5049029;28;20025;-52
2021/06/20 11:01:11;;;;;;;5.78;2.60;;;27.40;82.90;;;;;;5049961;28;20391;-54
2021/06/20 11:03:38;;;;;;;6.00;2.53;;;27.40;82.10;;;;;;5047529;28;20518;-52
2021/06/20 11:06:07;;;;;;;5.90;2.92;;;27.50;82.20;;;;;;5049579;28;20031;-53
2021/06/20 11:08:52;;;;;;;5.50;2.67;;;27.70;81.70;;;;;;5048969;28;20036;-54
2021/06/20 11:11:22;;;;;;;9.90;2.72;;;27.90;80.70;;;;;;5048907;28;20104;-56
2021/06/20 11:13:56;;;;;;;7.55;2.67;;;27.90;81.80;;;;;;5049626;28;20140;-56
2021/06/20 11:16:51;;;;;;;9.77;2.50;;;28.00;81.90;;;;;;5030087;28;20400;-56
2021/06/20 11:19:21;;;;;;;5.57;2.88;;;28.00;79.70;;;;;;5011820;28;20117;-56
2021/06/20 11:22:01;;;;;;;11.50;3.50;;;28.00;80.80;;;;;;5029808;28;20057;-56
2021/06/20 11:24:36;;;;;;;6.07;2.47;;;27.80;80.60;;;;;;5029995;28;20049;-51
2021/06/20 11:27:07;;;;;;;4.65;2.08;;;27.60;81.10;;;;;;5029906;28;20560;-54
2021/06/20 11:29:45;;;;;;;11.05;4.25;;;27.30;82.50;;;;;;5029176;28;20034;-53
2021/06/20 11:32:22;;;;;;;6.18;2.47;;;27.20;82.70;;;;;;5030851;28;20030;-52
2021/06/20 11:34:56;;;;;;;4.50;2.28;;;27.30;83.30;;;;;;5033798;28;20116;-52
2021/06/20 11:37:32;;;;;;;6.93;2.10;;;27.40;83.00;;;;;;5033979;28;20044;-54
2021/06/20 11:40:05;;;;;;;8.30;2.58;;;27.60;81.20;;;;;;5032843;28;20029;-56
2021/06/20 11:42:34;;;;;;;8.32;2.35;;;27.70;80.30;;;;;;5033255;28;20568;-56
2021/06/20 11:45:10;;;;;;;4.82;2.90;;;27.70;81.30;;;;;;5033327;28;20036;-54
2021/06/20 11:47:47;;;;;;;7.05;2.58;;;27.50;80.80;;;;;;5033400;28;20481;-54
2021/06/20 11:50:13;;;;;;;6.20;2.47;;;27.20;82.80;;;;;;5032660;28;20056;-54
2021/06/20 11:52:40;;;;;;;12.63;2.83;;;27.10;81.30;;;;;;5015062;28;20033;-56
2021/06/20 11:55:13;;;;;;;5.15;2.67;;;27.00;82.20;;;;;;5033625;28;20164;-50
2021/06/20 11:57:39;;;;;;;4.15;2.85;;;27.00;83.60;;;;;;5033635;28;20017;-50
2021/06/20 12:00:10;;;;;;;4.47;2.70;;;27.10;82.70;;;;;;5032913;28;20503;-51
2021/06/20 12:02:35;;;;;;;5.38;2.72;;;27.10;82.30;;;;;;5015013;28;20025;-51
2021/06/20 12:05:02;;;;;;;4.53;2.28;;;27.30;81.70;;;;;;5033512;28;20400;-51
2021/06/20 12:07:28;;;;;;;9.38;4.07;;;27.40;82.40;;;;;;5033282;28;20025;-55
2021/06/20 12:09:54;;;;;;;5.72;2.60;;;27.60;81.50;;;;;;5032957;28;20109;-55
2021/06/20 12:12:20;;;;;;;6.13;2.30;;;27.60;81.20;;;;;;5032819;28;20479;-50
2021/06/20 12:15:00;;;;;;;6.57;2.45;;;27.70;82.00;;;;;;5033220;28;20061;-50
2021/06/20 12:17:27;;;;;;;6.75;2.45;;;27.60;79.80;;;;;;5033294;28;20075;-50
2021/06/20 12:19:53;;;;;;;4.75;2.33;;;27.40;78.80;;;;;;5032640;28;20014;-53
2021/06/20 12:22:19;;;;;;;10.07;2.28;;;27.40;79.90;;;;;;5032797;28;20611;-54
2021/06/20 12:25:00;;;;;;;2.38;2.17;;;27.40;78.80;;;;;;5033017;28;20176;-55
2021/06/20 12:27:35;;;;;;;8.52;2.47;;;27.60;79.60;;;;;;5032918;28;20022;-55
2021/06/20 12:30:16;;;;;;;3.05;2.20;;;27.70;77.90;;;;;;5032383;28;20388;-49
2021/06/20 12:32:42;;;;;;;2.63;2.00;;;27.50;76.70;;;;;;5032530;28;20120;-57
2021/06/20 12:35:17;;;;;;;8.45;2.15;;;27.50;78.30;;;;;;5032587;28;20029;-56
2021/06/20 12:37:43;;;;;;;9.80;2.28;;;27.50;78.80;;;;;;5032074;28;20026;-54
2021/06/20 12:40:20;;;;;;;7.90;2.00;;;27.70;78.00;;;;;;5032339;28;20033;-56
2021/06/20 12:42:49;;;;;;;5.68;2.20;;;27.70;77.80;;;;;;5032154;28;20029;-57
2021/06/20 12:45:26;;;;;;;4.88;2.08;;;27.70;76.30;;;;;;5032087;28;20496;-54